x

Lake Nipissing (45152) Wave Buoy

9:00pm - Thu 25th Aug 2016 All times are CDT. -5 hours from GMT.

  • Sig Wave height 0.3ft
  • Peak Period 2s
  • Wind
    13mph
  • Air Temp 71°f
  • Sea Pressure 1012mb
  • Lake Nipissing
  • Lake Nipissing

More Historic Weather Station data

Upgrade to MSW Pro to gain access to the past 30 days of data for over 8000 Wavebouys and Weather Stations around the globe.

Join Pro

Comparision Forecast

View Surf forecast
   
Thu 08/25 9:00pm 0.3ft 2s 13
mph
1012mb 71f
8:00pm 0.7ft 2s 11 13 mph 1012mb 72f
7:00pm 0.7ft 2s 13 18 mph 1011.8mb 74f
6:00pm 0.7ft 2s 16 20 mph 1011.6mb 76f
5:00pm 0.7ft 2s 13 18 mph 1011.5mb 76f
4:00pm 0.3ft 2s 4 7 mph 1011.4mb 76f
3:00pm 0.3ft 2s 7 9 mph 1011.6mb 75f
2:00pm 0.3ft 2s 9 11 mph 1011.3mb 76f
1:00pm 0.3ft 2s 9
mph
1011.5mb 74f
12:00pm 0.7ft 3s 9 11 mph 1011.7mb 74f
11:00am 1ft 3s 11 13 mph 1011.8mb 73f
10:00am 1ft 3s 11 13 mph 1011.8mb 73f
9:00am 1ft 3s 13 16 mph 1011.4mb 72f
8:00am 0.7ft 2s 16 18 mph 1011.3mb 71f
7:00am 0.7ft 2s 13
mph
1011mb 71f
Wed 08/24 8:00pm  -  2s 9
mph
1012.4mb 70f
7:00pm  -  2s 4 7 mph 1013mb 70f
6:00pm 0.3ft 2s 7 9 mph 1013.3mb 71f
5:00pm 0.3ft 2s 4 7 mph 1013.1mb 74f
4:00pm 0.3ft 2s 13 18 mph 1013.7mb 75f
3:00pm 0.7ft 2s 11 16 mph 1014.6mb 76f
2:00pm 1ft 2s 18 22 mph 1015.6mb 77f
1:00pm 0.7ft 2s 13 20 mph 1016.5mb 76f
12:00pm 0.7ft 2s 18 22 mph 1017mb 76f
11:00am 0.7ft 2s 16 20 mph 1017.2mb 76f
10:00am 0.3ft 2s 11 16 mph 1018mb 74f
9:00am 0.3ft 2s 11 13 mph 1018.9mb 73f
8:00am 0.3ft 2s 11 13 mph 1019.4mb 71f
7:00am 0.7ft 2s 13 16 mph 1020.1mb 69f
6:00am 0.7ft 2s 13 18 mph 1020.3mb 67f
Tue 08/23 10:00pm 0.7ft 2s 11 16 mph 1020.7mb 70f
9:00pm 0.7ft 3s 9 11 mph 1020.9mb 70f
8:00pm 1ft 2s 13 16 mph 1020.8mb 72f
7:00pm 1.3ft 3s 18 25 mph 1020mb 73f
6:00pm 1.3ft 3s 18 22 mph 1019.6mb 74f
5:00pm 1.6ft 3s 18 22 mph 1019.4mb 75f
4:00pm 1.6ft 3s 22 27 mph 1019.1mb 76f
3:00pm 1.3ft 3s 20 27 mph 1019mb 76f
2:00pm 1.3ft 3s 16 20 mph 1019.7mb 74f
1:00pm 1.3ft 3s 16 22 mph 1019.8mb 75f
12:00pm 1.3ft 2s 18 22 mph 1019.8mb 74f
11:00am 1.3ft 3s 16 18 mph 1020mb 73f
10:00am 1ft 2s 18 22 mph 1020.2mb 72f
9:00am 0.7ft 2s 16 18 mph 1020.2mb 71f
8:00am 0.7ft 2s 16 20 mph 1020.1mb 68f
7:00am 0.7ft 2s 16 20 mph 1020.1mb 67f
6:00am 0.7ft 2s 16 20 mph 1020.3mb 64f
Mon 08/22 11:00pm 0.7ft 2s 16 18 mph 1020.7mb 64f
10:00pm 1ft 3s 16 20 mph 1020.2mb 65f
9:00pm 1ft 3s 16 18 mph 1020.2mb 65f
8:00pm 1ft 2s 13 18 mph 1019.5mb 67f
7:00pm 1ft 3s 16 18 mph 1018.9mb 68f
6:00pm 1ft 3s 16 20 mph 1018.5mb 70f
5:00pm 1ft 3s 13 18 mph 1018.3mb 71f
4:00pm 1ft 2s 16 20 mph 1018.4mb 71f
3:00pm 0.7ft 2s 16 20 mph 1018.6mb 70f
2:00pm 0.7ft 2s 13 16 mph 1018.6mb 69f
1:00pm 0.7ft 2s 11 16 mph 1018.8mb 68f
12:00pm 0.7ft 2s 11 16 mph 1019.1mb 67f
11:00am 0.3ft 2s 9 13 mph 1019.3mb 64f
10:00am 0.3ft 2s 9 11 mph 1019mb 63f
9:00am 0.7ft 3s 7 9 mph 1018.9mb 60f
8:00am 0.7ft 2s 7 11 mph 1018.3mb 58f
7:00am 0.7ft 2s 9 13 mph 1017.9mb 57f
6:00am 0.7ft 2s 13 16 mph 1017.2mb 56f